Wednesday, October 22, 2014
13:51 UTC
  |  Log In   |  Register Free
Airport Search:

Owatonna Degner Regional Airport
(KOWA)

Owatonna Degner Regional Airport Diagram
No Airport Diagram Available

FAA data valid effective September 18, 2014 - November 13, 2014 (unless otherwise noted).

 
 
 
 
 
 
 
 
 
 
 
 
 
 

Current Aviation Weather for Owatonna Degner Regional Airport (KOWA)

The most recent METAR observation for KOWA was updated at: 1314
METAR Summary (Translated METAR)
KOWA
221255Z AUTO 15017G23KT 10SM CLR 05/02 A3019 RMK AO2
KFBL
221254Z AUTO 15010KT 10SM CLR 05/03 A3019 RMK AO2
(12.5 nm NW from KOWA)
KACQ
221254Z AUTO 14010KT 10SM CLR 03/00 A3020 RMK AO2
(12.9 nm SW from KOWA)
TAF
No TAF information found within 50 nm of KOWA
  Airport Weather Conditions for KOWA

 Current Weather at OWA
41° F
Fair
Southeast winds at 19.6 mph
OWA NOAA Radar

Pressure: 30.19 in
Humidity: 81%
Wind: from the Southeast at 19.6 gusting to 26.5 MPH (17 gusting to 23 KT)
Dew Point: 35.6°F
Visibility: 10.00 mi


Airport Weather Forecast for KOWA

Translated METAR and TAF for KOWA
Translated METAR for KOWA (1346 UTC 22 October 2014)
found at http://aviationweather.gov/adds/metars/
 
METAR text: KOWA 221335Z AUTO 15015G23KT 10SM CLR 06/03 A3019 RMK AO2
Conditions at: KOWA (OWATONNA , MN, US) observed 1335 UTC 22 October 2014
Temperature: 6.0°C (43°F)
Dewpoint: 3.0°C (37°F) [RH = 81%]
Pressure (altimeter): 30.19 inches Hg (1022.4 mb)
Winds: from the SSE (150 degrees) at 17 MPH (15 knots; 7.8 m/s)
gusting to 26 MPH (23 knots; 12.0 m/s)
Visibility: 10 or more miles (16+ km)
Ceiling: at least 12,000 feet AGL
Clouds: sky clear below 12,000 feet AGL
Weather: automated observation with no human augmentation;
there may or may not be significant weather present at this time
Translated TAF for KOWA

There is no translated TAF available for this airport

Find All Airport Services Find A Hotel Find A Rental Car Find A Golf Course Find A Restaurant $100 Hamburger



FBO's on the Field
FBO Company Facility Photos Services Transportation Aviation Fuel Prices: Prices include tax
Catering Weather Repair Courtesy Rental Type 100LL JetA JetA+ MOGAS 8087
 
Owatonna Degner Regional Airport

This FBO has not yet been rated
FS:Avfuel
Last Updated: Sep-18
Login to update fuel prices
SS:
Contact Owatonna Degner Regional AirportMore FBO Information
 
Add another FBO Facility Photos Catering Weather Repair Courtesy Rental Type 100LL JetA JetA+ MOGAS 8087
Services Transportation Aviation Fuel Prices: Prices include tax


model-print
model-print
model-print
model-print